sensor_id;sensor_type;location;lat;lon;timestamp;P1;durP1;ratioP1;P2;durP2;ratioP2
11084;SDS011;5596;46.826;8.650;2022-07-29T00:00:09;3.47;;;1.90;;
11084;SDS011;5596;46.826;8.650;2022-07-29T00:02:37;1.77;;;1.50;;
11084;SDS011;5596;46.826;8.650;2022-07-29T00:05:04;1.60;;;1.50;;
11084;SDS011;5596;46.826;8.650;2022-07-29T00:07:32;2.60;;;1.30;;
11084;SDS011;5596;46.826;8.650;2022-07-29T00:09:59;1.30;;;1.20;;
11084;SDS011;5596;46.826;8.650;2022-07-29T00:12:26;1.50;;;1.40;;
11084;SDS011;5596;46.826;8.650;2022-07-29T00:14:53;4.43;;;1.27;;
11084;SDS011;5596;46.826;8.650;2022-07-29T00:17:22;3.83;;;1.60;;
11084;SDS011;5596;46.826;8.650;2022-07-29T00:19:49;2.57;;;1.50;;
11084;SDS011;5596;46.826;8.650;2022-07-29T00:22:17;1.70;;;1.30;;
11084;SDS011;5596;46.826;8.650;2022-07-29T00:24:44;2.00;;;1.80;;
11084;SDS011;5596;46.826;8.650;2022-07-29T00:27:11;2.80;;;1.47;;
11084;SDS011;5596;46.826;8.650;2022-07-29T00:29:38;2.97;;;1.80;;
11084;SDS011;5596;46.826;8.650;2022-07-29T00:32:05;1.60;;;1.50;;
11084;SDS011;5596;46.826;8.650;2022-07-29T00:34:34;3.07;;;1.67;;
11084;SDS011;5596;46.826;8.650;2022-07-29T00:37:19;1.90;;;1.27;;
11084;SDS011;5596;46.826;8.650;2022-07-29T00:39:46;4.50;;;1.53;;
11084;SDS011;5596;46.826;8.650;2022-07-29T00:42:13;4.93;;;1.43;;
11084;SDS011;5596;46.826;8.650;2022-07-29T00:44:41;1.60;;;1.43;;
11084;SDS011;5596;46.826;8.650;2022-07-29T00:47:09;3.67;;;1.60;;
11084;SDS011;5596;46.826;8.650;2022-07-29T00:49:39;1.63;;;1.53;;
11084;SDS011;5596;46.826;8.650;2022-07-29T00:52:08;2.57;;;1.70;;
11084;SDS011;5596;46.826;8.650;2022-07-29T00:54:36;2.47;;;1.40;;
11084;SDS011;5596;46.826;8.650;2022-07-29T00:57:05;1.40;;;1.30;;
11084;SDS011;5596;46.826;8.650;2022-07-29T00:59:34;2.67;;;1.53;;
11084;SDS011;5596;46.826;8.650;2022-07-29T01:02:01;3.20;;;1.60;;
11084;SDS011;5596;46.826;8.650;2022-07-29T01:04:28;1.50;;;1.40;;
11084;SDS011;5596;46.826;8.650;2022-07-29T01:06:58;1.53;;;1.40;;
11084;SDS011;5596;46.826;8.650;2022-07-29T01:09:28;2.20;;;1.40;;
11084;SDS011;5596;46.826;8.650;2022-07-29T01:11:56;2.17;;;1.70;;
11084;SDS011;5596;46.826;8.650;2022-07-29T01:14:25;1.70;;;1.60;;
11084;SDS011;5596;46.826;8.650;2022-07-29T01:16:54;2.93;;;1.50;;
11084;SDS011;5596;46.826;8.650;2022-07-29T01:19:39;2.47;;;1.70;;
11084;SDS011;5596;46.826;8.650;2022-07-29T01:22:23;2.33;;;1.30;;
11084;SDS011;5596;46.826;8.650;2022-07-29T01:25:02;4.83;;;1.63;;
11084;SDS011;5596;46.826;8.650;2022-07-29T01:27:42;2.40;;;1.60;;
11084;SDS011;5596;46.826;8.650;2022-07-29T01:30:19;2.47;;;1.50;;
11084;SDS011;5596;46.826;8.650;2022-07-29T01:32:50;4.07;;;1.70;;
11084;SDS011;5596;46.826;8.650;2022-07-29T01:35:23;2.90;;;1.50;;
11084;SDS011;5596;46.826;8.650;2022-07-29T01:37:55;1.53;;;1.40;;
11084;SDS011;5596;46.826;8.650;2022-07-29T01:40:27;2.43;;;1.30;;
11084;SDS011;5596;46.826;8.650;2022-07-29T01:43:03;4.23;;;1.50;;
11084;SDS011;5596;46.826;8.650;2022-07-29T01:45:38;2.73;;;1.43;;
11084;SDS011;5596;46.826;8.650;2022-07-29T01:48:10;1.57;;;1.37;;
11084;SDS011;5596;46.826;8.650;2022-07-29T01:50:40;2.90;;;1.77;;
11084;SDS011;5596;46.826;8.650;2022-07-29T01:53:15;4.30;;;1.80;;
11084;SDS011;5596;46.826;8.650;2022-07-29T01:55:48;1.83;;;1.40;;
11084;SDS011;5596;46.826;8.650;2022-07-29T01:58:16;2.30;;;1.57;;
11084;SDS011;5596;46.826;8.650;2022-07-29T02:00:47;3.33;;;1.47;;
11084;SDS011;5596;46.826;8.650;2022-07-29T02:03:15;3.40;;;1.60;;
11084;SDS011;5596;46.826;8.650;2022-07-29T02:05:45;1.70;;;1.60;;
11084;SDS011;5596;46.826;8.650;2022-07-29T02:08:14;2.43;;;1.70;;
11084;SDS011;5596;46.826;8.650;2022-07-29T02:10:45;3.83;;;1.50;;
11084;SDS011;5596;46.826;8.650;2022-07-29T02:13:13;2.07;;;1.57;;
11084;SDS011;5596;46.826;8.650;2022-07-29T02:15:43;2.57;;;1.50;;
11084;SDS011;5596;46.826;8.650;2022-07-29T02:18:15;4.33;;;1.50;;
11084;SDS011;5596;46.826;8.650;2022-07-29T02:20:45;1.77;;;1.50;;
11084;SDS011;5596;46.826;8.650;2022-07-29T02:23:15;2.53;;;1.53;;
11084;SDS011;5596;46.826;8.650;2022-07-29T02:25:46;3.50;;;1.80;;
11084;SDS011;5596;46.826;8.650;2022-07-29T02:28:16;1.63;;;1.40;;
11084;SDS011;5596;46.826;8.650;2022-07-29T02:30:44;2.17;;;1.43;;
11084;SDS011;5596;46.826;8.650;2022-07-29T02:33:15;3.00;;;1.60;;
11084;SDS011;5596;46.826;8.650;2022-07-29T02:35:45;2.47;;;1.87;;
11084;SDS011;5596;46.826;8.650;2022-07-29T02:38:15;6.27;;;1.93;;
11084;SDS011;5596;46.826;8.650;2022-07-29T02:41:01;2.93;;;1.70;;
11084;SDS011;5596;46.826;8.650;2022-07-29T02:43:31;4.10;;;1.57;;
11084;SDS011;5596;46.826;8.650;2022-07-29T02:46:00;4.63;;;1.80;;
11084;SDS011;5596;46.826;8.650;2022-07-29T02:48:34;1.80;;;1.57;;
11084;SDS011;5596;46.826;8.650;2022-07-29T02:51:05;2.10;;;1.43;;
11084;SDS011;5596;46.826;8.650;2022-07-29T02:53:36;2.90;;;1.60;;
11084;SDS011;5596;46.826;8.650;2022-07-29T02:56:06;2.70;;;1.50;;
11084;SDS011;5596;46.826;8.650;2022-07-29T02:58:38;3.63;;;1.70;;
11084;SDS011;5596;46.826;8.650;2022-07-29T03:01:08;2.73;;;1.40;;
11084;SDS011;5596;46.826;8.650;2022-07-29T03:03:40;3.83;;;1.47;;
11084;SDS011;5596;46.826;8.650;2022-07-29T03:06:11;3.20;;;1.63;;
11084;SDS011;5596;46.826;8.650;2022-07-29T03:08:40;3.07;;;1.63;;
11084;SDS011;5596;46.826;8.650;2022-07-29T03:11:08;2.50;;;1.23;;
11084;SDS011;5596;46.826;8.650;2022-07-29T03:13:36;4.33;;;1.70;;
11084;SDS011;5596;46.826;8.650;2022-07-29T03:16:04;3.40;;;1.70;;
11084;SDS011;5596;46.826;8.650;2022-07-29T03:18:32;2.50;;;1.80;;
11084;SDS011;5596;46.826;8.650;2022-07-29T03:21:02;2.50;;;1.50;;
11084;SDS011;5596;46.826;8.650;2022-07-29T03:23:30;6.77;;;2.50;;
11084;SDS011;5596;46.826;8.650;2022-07-29T03:25:57;4.50;;;1.90;;
11084;SDS011;5596;46.826;8.650;2022-07-29T03:28:24;2.10;;;1.90;;
11084;SDS011;5596;46.826;8.650;2022-07-29T03:30:52;1.70;;;1.60;;
11084;SDS011;5596;46.826;8.650;2022-07-29T03:33:20;2.40;;;1.77;;
11084;SDS011;5596;46.826;8.650;2022-07-29T03:35:47;2.77;;;1.60;;
11084;SDS011;5596;46.826;8.650;2022-07-29T03:38:15;1.80;;;1.70;;
11084;SDS011;5596;46.826;8.650;2022-07-29T03:40:44;5.33;;;1.90;;
11084;SDS011;5596;46.826;8.650;2022-07-29T03:43:16;1.97;;;1.70;;
11084;SDS011;5596;46.826;8.650;2022-07-29T03:45:45;1.80;;;1.70;;
11084;SDS011;5596;46.826;8.650;2022-07-29T03:48:16;1.90;;;1.70;;
11084;SDS011;5596;46.826;8.650;2022-07-29T03:50:46;3.90;;;1.77;;
11084;SDS011;5596;46.826;8.650;2022-07-29T03:53:13;2.97;;;1.80;;
11084;SDS011;5596;46.826;8.650;2022-07-29T03:55:44;2.13;;;1.83;;
11084;SDS011;5596;46.826;8.650;2022-07-29T03:58:13;8.40;;;3.27;;
11084;SDS011;5596;46.826;8.650;2022-07-29T04:00:42;3.10;;;1.80;;
11084;SDS011;5596;46.826;8.650;2022-07-29T04:03:10;3.10;;;2.20;;
11084;SDS011;5596;46.826;8.650;2022-07-29T04:05:37;3.47;;;2.57;;
11084;SDS011;5596;46.826;8.650;2022-07-29T04:08:04;4.27;;;2.47;;
11084;SDS011;5596;46.826;8.650;2022-07-29T04:10:32;5.97;;;2.77;;
11084;SDS011;5596;46.826;8.650;2022-07-29T04:13:00;5.17;;;2.17;;
11084;SDS011;5596;46.826;8.650;2022-07-29T04:15:27;4.60;;;2.00;;
11084;SDS011;5596;46.826;8.650;2022-07-29T04:17:54;3.00;;;2.47;;
11084;SDS011;5596;46.826;8.650;2022-07-29T04:20:21;2.70;;;2.50;;
11084;SDS011;5596;46.826;8.650;2022-07-29T04:22:49;2.37;;;2.10;;
11084;SDS011;5596;46.826;8.650;2022-07-29T04:25:15;2.87;;;2.20;;
11084;SDS011;5596;46.826;8.650;2022-07-29T04:27:43;4.70;;;2.03;;
11084;SDS011;5596;46.826;8.650;2022-07-29T04:30:25;3.33;;;2.10;;
11084;SDS011;5596;46.826;8.650;2022-07-29T04:32:52;4.60;;;2.10;;
11084;SDS011;5596;46.826;8.650;2022-07-29T04:35:19;2.97;;;2.10;;
11084;SDS011;5596;46.826;8.650;2022-07-29T04:37:46;2.60;;;1.90;;
11084;SDS011;5596;46.826;8.650;2022-07-29T04:40:14;3.77;;;2.50;;
11084;SDS011;5596;46.826;8.650;2022-07-29T04:42:41;5.17;;;2.20;;
11084;SDS011;5596;46.826;8.650;2022-07-29T04:45:08;3.10;;;2.13;;
11084;SDS011;5596;46.826;8.650;2022-07-29T04:47:37;2.20;;;1.90;;
11084;SDS011;5596;46.826;8.650;2022-07-29T04:50:04;3.47;;;2.20;;
11084;SDS011;5596;46.826;8.650;2022-07-29T04:52:32;3.30;;;2.30;;
11084;SDS011;5596;46.826;8.650;2022-07-29T04:55:00;5.77;;;2.23;;
11084;SDS011;5596;46.826;8.650;2022-07-29T04:57:27;2.50;;;2.23;;
11084;SDS011;5596;46.826;8.650;2022-07-29T04:59:54;2.70;;;2.30;;
11084;SDS011;5596;46.826;8.650;2022-07-29T05:02:21;5.90;;;3.57;;
11084;SDS011;5596;46.826;8.650;2022-07-29T05:04:49;2.20;;;1.80;;
11084;SDS011;5596;46.826;8.650;2022-07-29T05:07:16;2.50;;;2.00;;
11084;SDS011;5596;46.826;8.650;2022-07-29T05:09:44;2.10;;;1.90;;
11084;SDS011;5596;46.826;8.650;2022-07-29T05:12:11;4.87;;;1.93;;
11084;SDS011;5596;46.826;8.650;2022-07-29T05:14:38;3.53;;;2.17;;
11084;SDS011;5596;46.826;8.650;2022-07-29T05:17:05;3.03;;;2.10;;
11084;SDS011;5596;46.826;8.650;2022-07-29T05:19:32;3.77;;;2.03;;
11084;SDS011;5596;46.826;8.650;2022-07-29T05:22:01;3.57;;;1.77;;
11084;SDS011;5596;46.826;8.650;2022-07-29T05:24:28;2.70;;;1.90;;
11084;SDS011;5596;46.826;8.650;2022-07-29T05:26:55;2.83;;;1.80;;
11084;SDS011;5596;46.826;8.650;2022-07-29T05:29:22;4.53;;;1.93;;
11084;SDS011;5596;46.826;8.650;2022-07-29T05:31:50;3.93;;;1.80;;
11084;SDS011;5596;46.826;8.650;2022-07-29T05:34:18;2.27;;;2.07;;
11084;SDS011;5596;46.826;8.650;2022-07-29T05:36:45;2.53;;;2.20;;
11084;SDS011;5596;46.826;8.650;2022-07-29T05:39:13;2.33;;;2.13;;
11084;SDS011;5596;46.826;8.650;2022-07-29T05:41:40;2.30;;;2.00;;
11084;SDS011;5596;46.826;8.650;2022-07-29T05:44:07;4.80;;;1.80;;
11084;SDS011;5596;46.826;8.650;2022-07-29T05:46:34;1.97;;;1.80;;
11084;SDS011;5596;46.826;8.650;2022-07-29T05:49:01;3.13;;;2.10;;
11084;SDS011;5596;46.826;8.650;2022-07-29T05:51:28;2.07;;;1.87;;
11084;SDS011;5596;46.826;8.650;2022-07-29T05:53:56;2.23;;;2.00;;
11084;SDS011;5596;46.826;8.650;2022-07-29T05:56:24;2.67;;;2.10;;
11084;SDS011;5596;46.826;8.650;2022-07-29T05:58:52;4.13;;;2.50;;
11084;SDS011;5596;46.826;8.650;2022-07-29T06:01:19;8.47;;;3.03;;
11084;SDS011;5596;46.826;8.650;2022-07-29T06:03:46;3.23;;;2.27;;
11084;SDS011;5596;46.826;8.650;2022-07-29T06:06:13;2.43;;;2.23;;
11084;SDS011;5596;46.826;8.650;2022-07-29T06:08:40;3.13;;;2.27;;
11084;SDS011;5596;46.826;8.650;2022-07-29T06:11:07;2.13;;;1.73;;
11084;SDS011;5596;46.826;8.650;2022-07-29T06:13:36;2.20;;;2.00;;
11084;SDS011;5596;46.826;8.650;2022-07-29T06:16:03;2.80;;;2.00;;
11084;SDS011;5596;46.826;8.650;2022-07-29T06:18:31;2.43;;;1.90;;
11084;SDS011;5596;46.826;8.650;2022-07-29T06:20:58;2.23;;;1.90;;
11084;SDS011;5596;46.826;8.650;2022-07-29T06:23:25;2.80;;;2.00;;
11084;SDS011;5596;46.826;8.650;2022-07-29T06:25:52;2.20;;;1.97;;
11084;SDS011;5596;46.826;8.650;2022-07-29T06:28:19;2.27;;;2.07;;
11084;SDS011;5596;46.826;8.650;2022-07-29T06:30:47;3.53;;;2.50;;
11084;SDS011;5596;46.826;8.650;2022-07-29T06:33:18;5.73;;;2.00;;
11084;SDS011;5596;46.826;8.650;2022-07-29T06:35:45;3.60;;;2.40;;
11084;SDS011;5596;46.826;8.650;2022-07-29T06:38:14;4.28;;;1.90;;
11084;SDS011;5596;46.826;8.650;2022-07-29T06:40:41;3.90;;;2.00;;
11084;SDS011;5596;46.826;8.650;2022-07-29T06:43:28;3.37;;;1.93;;
11084;SDS011;5596;46.826;8.650;2022-07-29T06:45:59;1.80;;;1.70;;
11084;SDS011;5596;46.826;8.650;2022-07-29T06:48:27;1.98;;;1.77;;
11084;SDS011;5596;46.826;8.650;2022-07-29T06:50:54;3.90;;;2.00;;
11084;SDS011;5596;46.826;8.650;2022-07-29T06:53:22;4.57;;;1.80;;
11084;SDS011;5596;46.826;8.650;2022-07-29T06:55:49;2.23;;;1.90;;
11084;SDS011;5596;46.826;8.650;2022-07-29T06:58:17;3.03;;;1.90;;
11084;SDS011;5596;46.826;8.650;2022-07-29T07:00:55;4.38;;;2.00;;
11084;SDS011;5596;46.826;8.650;2022-07-29T07:03:24;4.07;;;2.20;;
11084;SDS011;5596;46.826;8.650;2022-07-29T07:05:51;5.13;;;2.22;;
11084;SDS011;5596;46.826;8.650;2022-07-29T07:08:20;2.92;;;2.00;;
11084;SDS011;5596;46.826;8.650;2022-07-29T07:10:48;2.75;;;2.35;;
11084;SDS011;5596;46.826;8.650;2022-07-29T07:13:16;3.28;;;2.20;;
11084;SDS011;5596;46.826;8.650;2022-07-29T07:15:43;2.50;;;2.20;;
11084;SDS011;5596;46.826;8.650;2022-07-29T07:18:12;4.22;;;2.05;;
11084;SDS011;5596;46.826;8.650;2022-07-29T07:20:41;7.25;;;2.10;;
11084;SDS011;5596;46.826;8.650;2022-07-29T07:23:09;3.35;;;2.00;;
11084;SDS011;5596;46.826;8.650;2022-07-29T07:25:37;6.65;;;2.47;;
11084;SDS011;5596;46.826;8.650;2022-07-29T07:28:04;4.30;;;2.20;;
11084;SDS011;5596;46.826;8.650;2022-07-29T07:30:31;4.03;;;2.20;;
11084;SDS011;5596;46.826;8.650;2022-07-29T07:32:59;4.80;;;2.22;;
11084;SDS011;5596;46.826;8.650;2022-07-29T07:35:26;2.45;;;1.92;;
11084;SDS011;5596;46.826;8.650;2022-07-29T07:37:55;3.22;;;2.10;;
11084;SDS011;5596;46.826;8.650;2022-07-29T07:40:22;2.95;;;2.03;;
11084;SDS011;5596;46.826;8.650;2022-07-29T07:42:49;3.72;;;2.42;;
11084;SDS011;5596;46.826;8.650;2022-07-29T07:45:16;2.35;;;1.95;;
11084;SDS011;5596;46.826;8.650;2022-07-29T07:47:44;4.47;;;2.20;;
11084;SDS011;5596;46.826;8.650;2022-07-29T07:50:11;3.78;;;1.80;;
11084;SDS011;5596;46.826;8.650;2022-07-29T07:52:48;3.05;;;1.95;;
11084;SDS011;5596;46.826;8.650;2022-07-29T07:55:18;3.60;;;2.20;;
11084;SDS011;5596;46.826;8.650;2022-07-29T07:57:46;3.45;;;1.83;;
11084;SDS011;5596;46.826;8.650;2022-07-29T08:00:13;2.05;;;1.85;;
11084;SDS011;5596;46.826;8.650;2022-07-29T08:02:41;2.00;;;1.90;;
11084;SDS011;5596;46.826;8.650;2022-07-29T08:05:10;2.35;;;1.83;;
11084;SDS011;5596;46.826;8.650;2022-07-29T08:07:41;2.35;;;1.98;;
11084;SDS011;5596;46.826;8.650;2022-07-29T08:10:09;3.15;;;2.42;;
11084;SDS011;5596;46.826;8.650;2022-07-29T08:12:38;4.00;;;2.38;;
11084;SDS011;5596;46.826;8.650;2022-07-29T08:15:06;2.10;;;1.80;;
11084;SDS011;5596;46.826;8.650;2022-07-29T08:17:34;2.50;;;2.30;;
11084;SDS011;5596;46.826;8.650;2022-07-29T08:20:01;3.00;;;1.98;;
11084;SDS011;5596;46.826;8.650;2022-07-29T08:22:28;3.15;;;2.38;;
11084;SDS011;5596;46.826;8.650;2022-07-29T08:24:55;2.95;;;2.35;;
11084;SDS011;5596;46.826;8.650;2022-07-29T08:27:22;10.98;;;2.92;;
11084;SDS011;5596;46.826;8.650;2022-07-29T08:29:52;2.95;;;2.25;;
11084;SDS011;5596;46.826;8.650;2022-07-29T08:32:21;3.65;;;2.17;;
11084;SDS011;5596;46.826;8.650;2022-07-29T08:34:48;3.67;;;2.20;;
11084;SDS011;5596;46.826;8.650;2022-07-29T08:37:15;2.63;;;1.98;;
11084;SDS011;5596;46.826;8.650;2022-07-29T08:39:42;2.55;;;2.13;;
11084;SDS011;5596;46.826;8.650;2022-07-29T08:42:10;2.60;;;2.40;;
11084;SDS011;5596;46.826;8.650;2022-07-29T08:44:37;4.05;;;2.30;;
11084;SDS011;5596;46.826;8.650;2022-07-29T08:47:06;2.60;;;2.20;;
11084;SDS011;5596;46.826;8.650;2022-07-29T08:49:34;2.17;;;1.98;;
11084;SDS011;5596;46.826;8.650;2022-07-29T08:52:02;3.13;;;2.20;;
11084;SDS011;5596;46.826;8.650;2022-07-29T08:54:29;3.33;;;2.30;;
11084;SDS011;5596;46.826;8.650;2022-07-29T08:56:57;3.03;;;2.15;;
11084;SDS011;5596;46.826;8.650;2022-07-29T08:59:25;5.57;;;2.60;;
11084;SDS011;5596;46.826;8.650;2022-07-29T09:01:54;3.20;;;2.17;;
11084;SDS011;5596;46.826;8.650;2022-07-29T09:04:29;4.00;;;2.20;;
11084;SDS011;5596;46.826;8.650;2022-07-29T09:07:00;5.00;;;2.50;;
11084;SDS011;5596;46.826;8.650;2022-07-29T09:09:32;3.03;;;2.00;;
11084;SDS011;5596;46.826;8.650;2022-07-29T09:12:00;6.70;;;2.63;;
11084;SDS011;5596;46.826;8.650;2022-07-29T09:14:29;2.60;;;2.40;;
11084;SDS011;5596;46.826;8.650;2022-07-29T09:16:56;4.65;;;2.53;;
11084;SDS011;5596;46.826;8.650;2022-07-29T09:19:24;3.33;;;2.05;;
11084;SDS011;5596;46.826;8.650;2022-07-29T09:21:54;3.90;;;2.25;;
11084;SDS011;5596;46.826;8.650;2022-07-29T09:24:26;5.00;;;2.47;;
11084;SDS011;5596;46.826;8.650;2022-07-29T09:27:06;4.85;;;2.40;;
11084;SDS011;5596;46.826;8.650;2022-07-29T09:29:35;2.88;;;2.50;;
11084;SDS011;5596;46.826;8.650;2022-07-29T09:32:05;2.70;;;2.42;;
11084;SDS011;5596;46.826;8.650;2022-07-29T09:34:36;4.40;;;2.22;;
11084;SDS011;5596;46.826;8.650;2022-07-29T09:37:05;4.72;;;2.70;;
11084;SDS011;5596;46.826;8.650;2022-07-29T09:39:32;3.00;;;2.50;;
11084;SDS011;5596;46.826;8.650;2022-07-29T09:42:02;2.53;;;2.33;;
11084;SDS011;5596;46.826;8.650;2022-07-29T09:44:43;4.38;;;2.67;;
11084;SDS011;5596;46.826;8.650;2022-07-29T09:47:12;2.70;;;2.50;;
11084;SDS011;5596;46.826;8.650;2022-07-29T09:49:52;3.08;;;2.78;;
11084;SDS011;5596;46.826;8.650;2022-07-29T09:52:25;2.65;;;2.42;;
11084;SDS011;5596;46.826;8.650;2022-07-29T09:54:53;4.22;;;2.67;;
11084;SDS011;5596;46.826;8.650;2022-07-29T09:57:30;3.28;;;2.28;;
11084;SDS011;5596;46.826;8.650;2022-07-29T09:59:58;6.50;;;3.60;;
11084;SDS011;5596;46.826;8.650;2022-07-29T10:02:30;2.92;;;2.47;;
11084;SDS011;5596;46.826;8.650;2022-07-29T10:04:58;2.72;;;2.53;;
11084;SDS011;5596;46.826;8.650;2022-07-29T10:07:27;3.92;;;2.67;;
11084;SDS011;5596;46.826;8.650;2022-07-29T10:10:10;4.55;;;2.53;;
11084;SDS011;5596;46.826;8.650;2022-07-29T10:12:47;3.25;;;2.80;;
11084;SDS011;5596;46.826;8.650;2022-07-29T10:15:16;3.88;;;2.92;;
11084;SDS011;5596;46.826;8.650;2022-07-29T10:17:44;2.58;;;2.38;;
11084;SDS011;5596;46.826;8.650;2022-07-29T10:20:12;3.38;;;3.00;;
11084;SDS011;5596;46.826;8.650;2022-07-29T10:22:41;4.70;;;3.08;;
11084;SDS011;5596;46.826;8.650;2022-07-29T10:25:09;2.63;;;2.40;;
11084;SDS011;5596;46.826;8.650;2022-07-29T10:27:37;2.90;;;2.70;;
11084;SDS011;5596;46.826;8.650;2022-07-29T10:30:05;3.58;;;2.60;;
11084;SDS011;5596;46.826;8.650;2022-07-29T10:32:41;4.03;;;2.58;;
11084;SDS011;5596;46.826;8.650;2022-07-29T10:35:38;3.58;;;2.80;;
11084;SDS011;5596;46.826;8.650;2022-07-29T10:41:34;4.32;;;2.67;;
11084;SDS011;5596;46.826;8.650;2022-07-29T10:44:16;3.10;;;2.72;;
11084;SDS011;5596;46.826;8.650;2022-07-29T10:46:45;3.92;;;2.80;;
11084;SDS011;5596;46.826;8.650;2022-07-29T10:49:13;4.57;;;2.60;;
11084;SDS011;5596;46.826;8.650;2022-07-29T10:51:52;3.38;;;2.90;;
11084;SDS011;5596;46.826;8.650;2022-07-29T10:54:35;4.03;;;2.88;;
11084;SDS011;5596;46.826;8.650;2022-07-29T10:57:16;2.75;;;2.55;;
11084;SDS011;5596;46.826;8.650;2022-07-29T10:59:46;2.70;;;2.50;;
11084;SDS011;5596;46.826;8.650;2022-07-29T11:05:13;3.90;;;2.83;;
11084;SDS011;5596;46.826;8.650;2022-07-29T11:10:43;3.00;;;2.55;;
11084;SDS011;5596;46.826;8.650;2022-07-29T11:13:11;4.28;;;3.22;;
11084;SDS011;5596;46.826;8.650;2022-07-29T11:15:54;6.07;;;3.90;;
11084;SDS011;5596;46.826;8.650;2022-07-29T11:18:22;3.53;;;2.88;;
11084;SDS011;5596;46.826;8.650;2022-07-29T11:20:50;3.10;;;2.80;;
11084;SDS011;5596;46.826;8.650;2022-07-29T11:23:19;5.85;;;2.90;;
11084;SDS011;5596;46.826;8.650;2022-07-29T11:28:56;2.85;;;2.63;;
11084;SDS011;5596;46.826;8.650;2022-07-29T11:31:35;3.70;;;2.60;;
11084;SDS011;5596;46.826;8.650;2022-07-29T11:34:19;3.28;;;2.97;;
11084;SDS011;5596;46.826;8.650;2022-07-29T11:40:09;3.85;;;2.72;;
11084;SDS011;5596;46.826;8.650;2022-07-29T11:42:47;2.97;;;2.75;;
11084;SDS011;5596;46.826;8.650;2022-07-29T11:45:21;3.30;;;3.00;;
11084;SDS011;5596;46.826;8.650;2022-07-29T11:47:55;2.97;;;2.65;;
11084;SDS011;5596;46.826;8.650;2022-07-29T11:50:29;3.03;;;2.53;;
11084;SDS011;5596;46.826;8.650;2022-07-29T11:52:58;3.50;;;2.70;;
11084;SDS011;5596;46.826;8.650;2022-07-29T11:55:27;3.10;;;2.80;;
11084;SDS011;5596;46.826;8.650;2022-07-29T11:57:57;3.38;;;3.08;;
11084;SDS011;5596;46.826;8.650;2022-07-29T12:00:28;3.28;;;2.83;;
11084;SDS011;5596;46.826;8.650;2022-07-29T12:02:57;4.22;;;2.83;;
11084;SDS011;5596;46.826;8.650;2022-07-29T12:05:33;3.58;;;3.25;;
11084;SDS011;5596;46.826;8.650;2022-07-29T12:08:09;7.10;;;2.95;;
11084;SDS011;5596;46.826;8.650;2022-07-29T12:10:38;3.30;;;3.00;;
11084;SDS011;5596;46.826;8.650;2022-07-29T12:13:06;3.90;;;3.50;;
11084;SDS011;5596;46.826;8.650;2022-07-29T12:15:35;3.72;;;3.40;;
11084;SDS011;5596;46.826;8.650;2022-07-29T12:18:09;3.90;;;3.35;;
11084;SDS011;5596;46.826;8.650;2022-07-29T12:20:40;3.95;;;3.42;;
11084;SDS011;5596;46.826;8.650;2022-07-29T12:23:08;5.82;;;3.70;;
11084;SDS011;5596;46.826;8.650;2022-07-29T12:25:37;4.00;;;3.70;;
11084;SDS011;5596;46.826;8.650;2022-07-29T12:28:05;5.65;;;3.50;;
11084;SDS011;5596;46.826;8.650;2022-07-29T12:30:42;7.45;;;4.30;;
11084;SDS011;5596;46.826;8.650;2022-07-29T12:33:15;5.85;;;3.83;;
11084;SDS011;5596;46.826;8.650;2022-07-29T12:35:46;5.82;;;3.70;;
11084;SDS011;5596;46.826;8.650;2022-07-29T12:38:15;6.18;;;4.07;;
11084;SDS011;5596;46.826;8.650;2022-07-29T12:40:43;6.45;;;4.80;;
11084;SDS011;5596;46.826;8.650;2022-07-29T12:43:13;6.32;;;5.00;;
11084;SDS011;5596;46.826;8.650;2022-07-29T12:45:43;5.43;;;4.18;;
11084;SDS011;5596;46.826;8.650;2022-07-29T12:48:12;6.35;;;5.38;;
11084;SDS011;5596;46.826;8.650;2022-07-29T12:50:53;6.38;;;4.57;;
11084;SDS011;5596;46.826;8.650;2022-07-29T12:53:21;4.80;;;3.75;;
11084;SDS011;5596;46.826;8.650;2022-07-29T12:55:49;8.85;;;4.10;;
11084;SDS011;5596;46.826;8.650;2022-07-29T12:58:27;5.20;;;4.13;;
11084;SDS011;5596;46.826;8.650;2022-07-29T13:01:04;6.25;;;4.15;;
11084;SDS011;5596;46.826;8.650;2022-07-29T13:03:43;5.85;;;4.85;;
11084;SDS011;5596;46.826;8.650;2022-07-29T13:06:30;8.20;;;4.95;;
11084;SDS011;5596;46.826;8.650;2022-07-29T13:09:00;5.88;;;4.78;;
11084;SDS011;5596;46.826;8.650;2022-07-29T13:11:30;7.90;;;4.95;;
11084;SDS011;5596;46.826;8.650;2022-07-29T13:13:58;9.95;;;5.68;;
11084;SDS011;5596;46.826;8.650;2022-07-29T13:16:26;5.78;;;4.50;;
11084;SDS011;5596;46.826;8.650;2022-07-29T13:19:04;6.18;;;4.70;;
11084;SDS011;5596;46.826;8.650;2022-07-29T13:21:33;5.95;;;4.35;;
11084;SDS011;5596;46.826;8.650;2022-07-29T13:24:00;4.93;;;4.05;;
11084;SDS011;5596;46.826;8.650;2022-07-29T13:26:27;7.25;;;4.28;;
11084;SDS011;5596;46.826;8.650;2022-07-29T13:28:54;6.97;;;4.53;;
11084;SDS011;5596;46.826;8.650;2022-07-29T13:31:22;8.27;;;5.20;;
11084;SDS011;5596;46.826;8.650;2022-07-29T13:33:50;6.93;;;5.28;;
11084;SDS011;5596;46.826;8.650;2022-07-29T13:36:17;5.43;;;4.78;;
11084;SDS011;5596;46.826;8.650;2022-07-29T13:38:44;7.63;;;5.32;;
11084;SDS011;5596;46.826;8.650;2022-07-29T13:41:11;4.93;;;4.47;;
11084;SDS011;5596;46.826;8.650;2022-07-29T13:43:39;5.72;;;4.90;;
11084;SDS011;5596;46.826;8.650;2022-07-29T13:46:06;7.03;;;5.88;;
11084;SDS011;5596;46.826;8.650;2022-07-29T13:48:33;8.27;;;5.28;;
11084;SDS011;5596;46.826;8.650;2022-07-29T13:51:02;6.93;;;5.75;;
11084;SDS011;5596;46.826;8.650;2022-07-29T13:53:29;6.60;;;5.30;;
11084;SDS011;5596;46.826;8.650;2022-07-29T13:55:56;5.68;;;5.10;;
11084;SDS011;5596;46.826;8.650;2022-07-29T13:58:23;5.85;;;4.82;;
11084;SDS011;5596;46.826;8.650;2022-07-29T14:00:50;7.40;;;4.70;;
11084;SDS011;5596;46.826;8.650;2022-07-29T14:03:17;6.95;;;4.90;;
11084;SDS011;5596;46.826;8.650;2022-07-29T14:05:45;8.15;;;4.93;;
11084;SDS011;5596;46.826;8.650;2022-07-29T14:08:13;8.18;;;5.60;;
11084;SDS011;5596;46.826;8.650;2022-07-29T14:10:40;6.32;;;5.43;;
11084;SDS011;5596;46.826;8.650;2022-07-29T14:13:07;5.57;;;4.60;;
11084;SDS011;5596;46.826;8.650;2022-07-29T14:15:35;7.10;;;4.72;;
11084;SDS011;5596;46.826;8.650;2022-07-29T14:18:02;7.80;;;4.80;;
11084;SDS011;5596;46.826;8.650;2022-07-29T14:20:29;4.93;;;4.18;;
11084;SDS011;5596;46.826;8.650;2022-07-29T14:22:57;5.50;;;4.57;;
11084;SDS011;5596;46.826;8.650;2022-07-29T14:25:25;6.63;;;4.45;;
11084;SDS011;5596;46.826;8.650;2022-07-29T14:27:52;5.72;;;4.90;;
11084;SDS011;5596;46.826;8.650;2022-07-29T14:30:20;5.15;;;4.65;;
11084;SDS011;5596;46.826;8.650;2022-07-29T14:32:47;6.07;;;4.40;;
11084;SDS011;5596;46.826;8.650;2022-07-29T14:35:14;6.93;;;4.78;;
11084;SDS011;5596;46.826;8.650;2022-07-29T14:37:42;7.55;;;4.97;;
11084;SDS011;5596;46.826;8.650;2022-07-29T14:40:10;8.73;;;5.50;;
11084;SDS011;5596;46.826;8.650;2022-07-29T14:42:39;5.93;;;5.25;;
11084;SDS011;5596;46.826;8.650;2022-07-29T14:45:07;7.63;;;5.68;;
11084;SDS011;5596;46.826;8.650;2022-07-29T14:47:35;5.25;;;4.68;;
11084;SDS011;5596;46.826;8.650;2022-07-29T14:50:04;7.47;;;5.22;;
11084;SDS011;5596;46.826;8.650;2022-07-29T14:52:32;7.93;;;5.03;;
11084;SDS011;5596;46.826;8.650;2022-07-29T14:55:00;7.57;;;5.43;;
11084;SDS011;5596;46.826;8.650;2022-07-29T14:57:28;6.07;;;5.47;;
11084;SDS011;5596;46.826;8.650;2022-07-29T14:59:56;8.27;;;4.93;;
11084;SDS011;5596;46.826;8.650;2022-07-29T15:02:23;7.25;;;5.45;;
11084;SDS011;5596;46.826;8.650;2022-07-29T15:04:50;5.30;;;4.72;;
11084;SDS011;5596;46.826;8.650;2022-07-29T15:07:18;5.57;;;4.70;;
11084;SDS011;5596;46.826;8.650;2022-07-29T15:09:45;6.45;;;4.78;;
11084;SDS011;5596;46.826;8.650;2022-07-29T15:12:12;5.20;;;4.70;;
11084;SDS011;5596;46.826;8.650;2022-07-29T15:14:39;7.43;;;4.70;;
11084;SDS011;5596;46.826;8.650;2022-07-29T15:17:07;5.60;;;4.45;;
11084;SDS011;5596;46.826;8.650;2022-07-29T15:19:34;5.57;;;5.00;;
11084;SDS011;5596;46.826;8.650;2022-07-29T15:22:01;7.00;;;5.07;;
11084;SDS011;5596;46.826;8.650;2022-07-29T15:24:30;6.82;;;5.18;;
11084;SDS011;5596;46.826;8.650;2022-07-29T15:26:57;5.20;;;4.70;;
11084;SDS011;5596;46.826;8.650;2022-07-29T15:29:24;6.63;;;5.05;;